Time;durP1;ratioP1;P1;durP2;ratioP2;P2;SDS_P1;SDS_P2;PMS_P1;PMS_P2;Temp;Humidity;BMP_temperature;BMP_pressure;BME280_temperature;BME280_humidity;BME280_pressure;Samples;Min_cycle;Max_cycle;Signal;HPM_P1;HPM_P2
2023/04/12 00:01:33;;;;;;;;;;;;;;;8.25;87.62;100505.53;5023804;28;20407;-65
2023/04/12 00:03:58;;;;;;;;;;;;;;;8.24;87.32;100499.41;5019219;28;20087;-65
2023/04/12 00:06:26;;;;;;;;;;;;;;;8.26;87.65;100497.41;5026648;28;19913;-66
2023/04/12 00:08:51;;;;;;;;;;;;;;;8.26;88.22;100489.47;5024761;28;19917;-66
2023/04/12 00:11:18;;;;;;;;;;;;;;;8.24;88.56;100478.25;5015892;28;21247;-65
2023/04/12 00:13:43;;;;;;;;;;;;;;;8.23;89.24;100479.22;5024836;28;19917;-66
2023/04/12 00:16:08;;;;;;;;;;;;;;;8.22;89.34;100474.09;5027541;28;20411;-67
2023/04/12 00:18:34;;;;;;;;;;;;;;;8.19;89.87;100467.34;5024025;28;19996;-66
2023/04/12 00:20:59;;;;;;;;;;;;;;;8.16;90.09;100462.38;5023067;28;20449;-66
2023/04/12 00:23:24;;;;;;;;;;;;;;;8.13;90.29;100448.66;5027472;28;19917;-66
2023/04/12 00:25:50;;;;;;;;;;;;;;;8.08;90.90;100438.53;5018645;28;20578;-66
2023/04/12 00:28:15;;;;;;;;;;;;;;;8.03;90.96;100430.28;5004737;28;19917;-66
2023/04/12 00:30:40;;;;;;;;;;;;;;;8.01;91.20;100419.88;5027491;28;19946;-66
2023/04/12 00:33:06;;;;;;;;;;;;;;;8.00;91.53;100418.22;5020184;28;19925;-66
2023/04/12 00:35:31;;;;;;;;;;;;;;;7.98;91.87;100403.50;5025043;28;20012;-66
2023/04/12 00:37:56;;;;;;;;;;;;;;;8.00;91.50;100396.22;5019296;28;19937;-65
2023/04/12 00:40:21;;;;;;;;;;;;;;;8.01;91.74;100400.53;5019818;28;20283;-67
2023/04/12 00:42:46;;;;;;;;;;;;;;;7.99;91.62;100384.00;5021604;28;19955;-66
2023/04/12 00:45:12;;;;;;;;;;;;;;;8.04;90.84;100389.63;5025892;28;19917;-65
2023/04/12 00:47:38;;;;;;;;;;;;;;;8.02;91.16;100373.91;5007927;28;19948;-66
2023/04/12 00:50:04;;;;;;;;;;;;;;;8.02;91.85;100367.81;5025996;28;20417;-66
2023/04/12 00:52:33;;;;;;;;;;;;;;;8.01;91.57;100358.22;5022068;28;20009;-66
2023/04/12 00:54:58;;;;;;;;;;;;;;;8.02;91.57;100360.69;5022999;28;20446;-66
2023/04/12 00:57:23;;;;;;;;;;;;;;;8.04;91.59;100365.81;5026795;28;19999;-67
2023/04/12 00:59:48;;;;;;;;;;;;;;;8.01;92.26;100339.72;5023109;28;19917;-66
2023/04/12 01:02:16;;;;;;;;;;;;;;;8.02;91.96;100333.44;5025920;28;20013;-67
2023/04/12 01:04:42;;;;;;;;;;;;;;;8.01;92.25;100324.66;5024245;28;19917;-66
2023/04/12 01:07:24;;;;;;;;;;;;;;;8.01;91.84;100314.09;5030609;28;19925;-66
2023/04/12 01:09:57;;;;;;;;;;;;;;;8.03;91.90;100298.88;5009451;28;19917;-66
2023/04/12 01:12:37;;;;;;;;;;;;;;;8.03;91.44;100293.59;5023712;28;19921;-65
2023/04/12 01:15:06;;;;;;;;;;;;;;;8.04;91.73;100287.31;5027625;28;19921;-65
2023/04/12 01:17:36;;;;;;;;;;;;;;;8.06;91.47;100280.03;5030475;28;19940;-66
2023/04/12 01:20:05;;;;;;;;;;;;;;;8.09;90.87;100268.28;5026681;28;20012;-65
2023/04/12 01:22:31;;;;;;;;;;;;;;;8.11;90.47;100268.97;5027067;28;19941;-66
2023/04/12 01:25:12;;;;;;;;;;;;;;;8.14;90.02;100254.59;5025156;28;19940;-66
2023/04/12 01:27:41;;;;;;;;;;;;;;;8.12;90.18;100259.22;5026883;28;19918;-65
2023/04/12 01:30:07;;;;;;;;;;;;;;;8.14;89.74;100246.66;5028130;28;20017;-67
2023/04/12 01:32:33;;;;;;;;;;;;;;;8.13;90.31;100237.91;5026201;28;20020;-67
2023/04/12 01:35:00;;;;;;;;;;;;;;;8.12;90.54;100241.53;4997545;28;20004;-66
2023/04/12 01:37:25;;;;;;;;;;;;;;;8.11;90.49;100226.66;5023307;28;19917;-66
2023/04/12 01:39:51;;;;;;;;;;;;;;;8.10;90.68;100218.91;5022702;28;20011;-66
2023/04/12 01:42:22;;;;;;;;;;;;;;;8.09;90.49;100210.13;5024406;28;19984;-65
2023/04/12 01:44:47;;;;;;;;;;;;;;;8.10;89.86;100206.50;5026546;28;19913;-65
2023/04/12 01:47:13;;;;;;;;;;;;;;;8.08;90.64;100206.66;5029991;28;19975;-66
2023/04/12 01:49:47;;;;;;;;;;;;;;;8.09;90.75;100194.25;5032188;28;19921;-67
2023/04/12 01:52:16;;;;;;;;;;;;;;;8.10;90.50;100203.03;5029297;28;20413;-66
2023/04/12 01:54:43;;;;;;;;;;;;;;;8.07;90.61;100190.94;5027863;28;19932;-65
2023/04/12 01:57:08;;;;;;;;;;;;;;;8.06;90.49;100176.91;5019512;28;19922;-66
2023/04/12 01:59:38;;;;;;;;;;;;;;;8.04;91.07;100178.91;5024671;28;19920;-66
2023/04/12 02:02:03;;;;;;;;;;;;;;;8.04;91.17;100170.16;5027023;28;20378;-67
2023/04/12 02:04:29;;;;;;;;;;;;;;;8.06;90.86;100154.94;5022210;28;19935;-65
2023/04/12 02:06:54;;;;;;;;;;;;;;;8.06;90.47;100149.63;5022748;28;19920;-66
2023/04/12 02:09:21;;;;;;;;;;;;;;;8.06;90.33;100133.78;5027739;28;19917;-66
2023/04/12 02:11:47;;;;;;;;;;;;;;;8.04;90.27;100131.31;5026040;28;19933;-65
2023/04/12 02:14:12;;;;;;;;;;;;;;;8.03;90.19;100127.00;5028292;28;20004;-66
2023/04/12 02:16:40;;;;;;;;;;;;;;;8.07;90.10;100120.38;5026339;28;20675;-66
2023/04/12 02:19:07;;;;;;;;;;;;;;;8.05;90.95;100119.72;5024745;28;19924;-65
2023/04/12 02:21:59;;;;;;;;;;;;;;;8.02;91.17;100106.84;5027281;28;19924;-67
2023/04/12 02:24:26;;;;;;;;;;;;;;;8.02;91.07;100095.47;5013776;28;20016;-66
2023/04/12 02:26:51;;;;;;;;;;;;;;;8.01;90.81;100099.91;5019791;28;19928;-67
2023/04/12 02:29:16;;;;;;;;;;;;;;;8.01;90.67;100088.53;5024744;28;19948;-65
2023/04/12 02:31:42;;;;;;;;;;;;;;;7.99;91.61;100093.97;5019157;28;19925;-66
2023/04/12 02:34:07;;;;;;;;;;;;;;;7.97;91.34;100084.56;5028850;28;20382;-65
2023/04/12 02:36:33;;;;;;;;;;;;;;;7.96;91.69;100067.91;5025760;28;20002;-66
2023/04/12 02:38:59;;;;;;;;;;;;;;;8.00;91.39;100057.78;5017499;28;20369;-65
2023/04/12 02:41:25;;;;;;;;;;;;;;;7.96;91.46;100043.28;5027070;28;20007;-65
2023/04/12 02:43:50;;;;;;;;;;;;;;;7.98;91.40;100036.81;5023260;28;19917;-65
2023/04/12 02:46:21;;;;;;;;;;;;;;;7.99;90.95;100027.06;5023946;28;19952;-67
2023/04/12 02:48:47;;;;;;;;;;;;;;;8.00;91.12;100037.47;5027881;28;19917;-66
2023/04/12 02:51:12;;;;;;;;;;;;;;;7.97;91.05;100014.00;5022808;28;19924;-66
2023/04/12 02:53:37;;;;;;;;;;;;;;;7.95;91.35;100015.19;5026123;28;19917;-67
2023/04/12 02:56:03;;;;;;;;;;;;;;;7.95;91.37;99999.34;5020942;28;19925;-66
2023/04/12 02:58:29;;;;;;;;;;;;;;;7.98;90.93;99996.34;5025564;28;19916;-65
2023/04/12 03:00:56;;;;;;;;;;;;;;;8.04;90.87;99983.22;5020373;28;19917;-65
2023/04/12 03:03:21;;;;;;;;;;;;;;;8.08;90.32;99978.41;5019492;28;20579;-65
2023/04/12 03:05:46;;;;;;;;;;;;;;;8.00;90.25;99973.19;5024439;28;19913;-65
2023/04/12 03:08:12;;;;;;;;;;;;;;;7.97;90.92;99976.19;5016762;28;20410;-66
2023/04/12 03:10:37;;;;;;;;;;;;;;;7.96;90.69;99969.25;5021579;28;19929;-65
2023/04/12 03:13:03;;;;;;;;;;;;;;;7.95;90.95;99968.44;5024614;28;19917;-65
2023/04/12 03:15:29;;;;;;;;;;;;;;;7.99;90.86;99959.16;5013776;28;19971;-66
2023/04/12 03:17:54;;;;;;;;;;;;;;;7.95;90.69;99949.91;5024981;28;19921;-66
2023/04/12 03:20:19;;;;;;;;;;;;;;;7.95;91.13;99947.28;5018893;28;20071;-65
2023/04/12 03:22:44;;;;;;;;;;;;;;;7.92;91.10;99947.63;5017101;28;20382;-65
2023/04/12 03:25:10;;;;;;;;;;;;;;;7.88;91.82;99946.34;5017660;28;20005;-65
2023/04/12 03:27:35;;;;;;;;;;;;;;;7.86;92.22;99943.06;5028187;28;20302;-65
2023/04/12 03:30:00;;;;;;;;;;;;;;;7.85;91.80;99935.28;5033994;28;19970;-67
2023/04/12 03:32:25;;;;;;;;;;;;;;;7.89;91.53;99931.31;5026666;28;20294;-65
2023/04/12 03:34:50;;;;;;;;;;;;;;;7.84;91.66;99939.75;5023485;28;21539;-65
2023/04/12 03:37:16;;;;;;;;;;;;;;;7.81;92.64;99939.28;5023298;28;20374;-65
2023/04/12 03:39:43;;;;;;;;;;;;;;;7.76;93.05;99926.56;5024452;28;21691;-65
2023/04/12 03:42:08;;;;;;;;;;;;;;;7.74;93.20;99923.28;5024154;28;19936;-66
2023/04/12 03:44:34;;;;;;;;;;;;;;;7.74;93.46;99918.81;5015219;28;20000;-65
2023/04/12 03:46:59;;;;;;;;;;;;;;;7.72;93.33;99910.25;5024559;28;20298;-65
2023/04/12 03:49:24;;;;;;;;;;;;;;;7.71;93.53;99898.03;5024125;28;19920;-65
2023/04/12 03:51:51;;;;;;;;;;;;;;;7.74;93.49;99900.31;5023334;28;19943;-65
2023/04/12 03:54:16;;;;;;;;;;;;;;;7.73;93.51;99882.81;5013622;28;19917;-67
2023/04/12 03:56:41;;;;;;;;;;;;;;;7.76;92.90;99879.00;5018183;28;19944;-65
2023/04/12 03:59:06;;;;;;;;;;;;;;;7.74;92.83;99873.06;5018655;28;19921;-65
2023/04/12 04:01:32;;;;;;;;;;;;;;;7.73;93.46;99868.78;5027632;28;20124;-65
2023/04/12 04:03:57;;;;;;;;;;;;;;;7.74;93.92;99865.16;5027251;28;19967;-65
2023/04/12 04:06:23;;;;;;;;;;;;;;;7.73;93.59;99859.03;5028695;28;19999;-67
2023/04/12 04:08:48;;;;;;;;;;;;;;;7.72;93.72;99854.75;5019340;28;19960;-65
2023/04/12 04:11:13;;;;;;;;;;;;;;;7.76;93.92;99853.41;5026855;28;19960;-66
2023/04/12 04:13:38;;;;;;;;;;;;;;;7.74;93.52;99842.19;5025461;28;20394;-66
2023/04/12 04:16:04;;;;;;;;;;;;;;;7.76;93.81;99837.53;5026860;28;20008;-66
2023/04/12 04:18:30;;;;;;;;;;;;;;;7.76;93.95;99839.38;5024269;28;19945;-65
2023/04/12 04:20:55;;;;;;;;;;;;;;;7.75;94.23;99833.25;5028530;28;19963;-66
2023/04/12 04:23:22;;;;;;;;;;;;;;;7.76;94.62;99824.31;5027354;28;19960;-66
2023/04/12 04:25:47;;;;;;;;;;;;;;;7.77;94.77;99828.63;5028042;28;20291;-65
2023/04/12 04:28:14;;;;;;;;;;;;;;;7.81;94.26;99821.19;5027140;28;19923;-65
2023/04/12 04:30:40;;;;;;;;;;;;;;;7.76;95.40;99821.69;5023811;28;19917;-66
2023/04/12 04:33:05;;;;;;;;;;;;;;;7.75;95.67;99820.03;5021657;28;19918;-66
2023/04/12 04:35:31;;;;;;;;;;;;;;;7.75;95.48;99808.66;5027483;28;20334;-65
2023/04/12 04:37:56;;;;;;;;;;;;;;;7.75;95.53;99808.66;5030785;28;19920;-65
2023/04/12 04:40:22;;;;;;;;;;;;;;;7.74;95.35;99812.28;5025277;28;20384;-66
2023/04/12 04:42:53;;;;;;;;;;;;;;;7.74;94.82;99802.53;5030718;28;20394;-65
2023/04/12 04:45:20;;;;;;;;;;;;;;;7.75;95.53;99798.91;5028107;28;20378;-65
2023/04/12 04:47:45;;;;;;;;;;;;;;;7.74;95.43;99801.72;5027442;28;19920;-67
2023/04/12 04:50:11;;;;;;;;;;;;;;;7.76;95.57;99802.38;5030587;28;19913;-66
2023/04/12 04:52:36;;;;;;;;;;;;;;;7.74;95.98;99799.91;5031029;28;20434;-66
2023/04/12 04:55:01;;;;;;;;;;;;;;;7.75;95.92;99795.44;5029658;28;19924;-65
2023/04/12 04:57:26;;;;;;;;;;;;;;;7.76;96.57;99811.13;5028147;28;20279;-65
2023/04/12 04:59:52;;;;;;;;;;;;;;;7.72;96.43;99798.44;5031959;28;20003;-66
2023/04/12 05:02:17;;;;;;;;;;;;;;;7.74;96.43;99791.97;5026457;28;19925;-65
2023/04/12 05:04:42;;;;;;;;;;;;;;;7.77;96.36;99782.88;5027336;28;19944;-66
2023/04/12 05:07:07;;;;;;;;;;;;;;;7.73;96.94;99790.34;5026412;28;19925;-65
2023/04/12 05:09:32;;;;;;;;;;;;;;;7.69;97.99;99799.63;5022799;28;20302;-66
2023/04/12 05:11:57;;;;;;;;;;;;;;;7.67;98.62;99790.22;5025032;28;19921;-66
2023/04/12 05:14:23;;;;;;;;;;;;;;;7.66;99.15;99786.75;5025206;28;19917;-66
2023/04/12 05:16:48;;;;;;;;;;;;;;;7.68;98.72;99784.75;5025770;28;19925;-65
2023/04/12 05:19:13;;;;;;;;;;;;;;;7.70;99.09;99788.03;5023984;28;19925;-66
2023/04/12 05:21:38;;;;;;;;;;;;;;;7.70;99.53;99779.28;5027460;28;19921;-66
2023/04/12 05:24:03;;;;;;;;;;;;;;;7.70;99.99;99777.47;5022389;28;19916;-66
2023/04/12 05:26:29;;;;;;;;;;;;;;;7.69;100.00;99777.66;5026860;28;20296;-65
2023/04/12 05:28:54;;;;;;;;;;;;;;;7.69;100.00;99767.91;5030537;28;19961;-66
2023/04/12 05:31:19;;;;;;;;;;;;;;;7.69;100.00;99767.91;5011730;28;20314;-66
2023/04/12 05:33:44;;;;;;;;;;;;;;;7.69;100.00;99759.16;5029397;28;20012;-65
2023/04/12 05:36:11;;;;;;;;;;;;;;;7.70;100.00;99763.44;5020613;28;19960;-65
2023/04/12 05:38:36;;;;;;;;;;;;;;;7.74;100.00;99759.44;5030867;28;19913;-65
2023/04/12 05:41:04;;;;;;;;;;;;;;;7.73;100.00;99763.91;5029437;28;19979;-66
2023/04/12 05:43:30;;;;;;;;;;;;;;;7.73;100.00;99761.25;5027390;28;19921;-65
2023/04/12 05:45:55;;;;;;;;;;;;;;;7.73;100.00;99763.09;5024839;28;19916;-66
2023/04/12 05:48:20;;;;;;;;;;;;;;;7.71;100.00;99759.81;5022790;28;20000;-65
2023/04/12 05:50:49;;;;;;;;;;;;;;;7.74;100.00;99759.44;5027432;28;19952;-65
2023/04/12 05:53:14;;;;;;;;;;;;;;;7.74;100.00;99762.91;5023306;28;20349;-65
2023/04/12 05:55:40;;;;;;;;;;;;;;;7.76;100.00;99757.44;5027770;28;19921;-68
2023/04/12 05:58:05;;;;;;;;;;;;;;;7.77;100.00;99754.63;5024500;28;19913;-66
2023/04/12 06:00:30;;;;;;;;;;;;;;;7.76;100.00;99757.44;5022352;28;20293;-68
2023/04/12 06:02:57;;;;;;;;;;;;;;;7.76;100.00;99760.91;5025478;28;20341;-66
2023/04/12 06:05:22;;;;;;;;;;;;;;;7.78;100.00;99760.72;5023186;28;19971;-65
2023/04/12 06:07:47;;;;;;;;;;;;;;;7.79;100.00;99759.72;5024571;28;19921;-65
2023/04/12 06:10:14;;;;;;;;;;;;;;;7.80;100.00;99752.59;5024974;28;19921;-65
2023/04/12 06:12:39;;;;;;;;;;;;;;;7.81;100.00;99755.09;5021743;28;19921;-65
2023/04/12 06:15:05;;;;;;;;;;;;;;;7.82;100.00;99762.03;5025635;28;20357;-65
2023/04/12 06:17:30;;;;;;;;;;;;;;;7.82;100.00;99753.28;5040753;28;19917;-65
2023/04/12 06:19:55;;;;;;;;;;;;;;;7.82;100.00;99761.22;5025013;28;21037;-66
2023/04/12 06:22:20;;;;;;;;;;;;;;;7.82;100.00;99761.22;5029322;28;19917;-65
2023/04/12 06:24:46;;;;;;;;;;;;;;;7.83;100.00;99757.56;5028739;28;19943;-65
2023/04/12 06:27:11;;;;;;;;;;;;;;;7.84;100.00;99765.31;5023227;28;19913;-65
2023/04/12 06:29:36;;;;;;;;;;;;;;;7.87;100.00;99769.41;5023558;28;19924;-65
2023/04/12 06:32:01;;;;;;;;;;;;;;;7.90;100.00;99766.41;5026414;28;20339;-66
2023/04/12 06:34:26;;;;;;;;;;;;;;;7.89;100.00;99768.25;5026438;28;19975;-65
2023/04/12 06:36:51;;;;;;;;;;;;;;;7.89;100.00;99768.25;5028376;28;19917;-66
2023/04/12 06:39:17;;;;;;;;;;;;;;;7.88;100.00;99757.84;5023479;28;20909;-65
2023/04/12 06:41:49;;;;;;;;;;;;;;;7.86;100.00;99768.59;5022982;28;20081;-65
2023/04/12 06:44:14;;;;;;;;;;;;;;;7.87;100.00;99764.13;5028326;28;19921;-65
2023/04/12 06:46:40;;;;;;;;;;;;;;;7.92;100.00;99761.75;5024376;28;19917;-66
2023/04/12 06:49:05;;;;;;;;;;;;;;;7.94;100.00;99752.66;5019741;28;19917;-65
2023/04/12 06:51:30;;;;;;;;;;;;;;;7.96;100.00;99752.47;5027868;28;20356;-65
2023/04/12 06:53:56;;;;;;;;;;;;;;;7.98;100.00;99755.75;5023692;28;19924;-66
2023/04/12 06:56:21;;;;;;;;;;;;;;;8.01;100.00;99760.69;5026593;28;19917;-65
2023/04/12 06:58:47;;;;;;;;;;;;;;;8.02;100.00;99763.13;5021958;28;19924;-65
2023/04/12 07:01:13;;;;;;;;;;;;;;;8.04;100.00;99761.13;5016634;28;19917;-67
2023/04/12 07:03:38;;;;;;;;;;;;;;;8.08;100.00;99766.88;5021434;28;19925;-65
2023/04/12 07:06:04;;;;;;;;;;;;;;;8.11;100.00;99769.19;5024971;28;20859;-65
2023/04/12 07:08:29;;;;;;;;;;;;;;;8.13;100.00;99764.53;5028822;28;19917;-65
2023/04/12 07:10:55;;;;;;;;;;;;;;;8.17;100.00;99762.34;5020394;28;20276;-65
2023/04/12 07:13:21;;;;;;;;;;;;;;;8.20;100.00;99762.81;5018252;28;19917;-66
2023/04/12 07:15:47;;;;;;;;;;;;;;;8.23;100.00;99764.25;5021649;28;19917;-66
2023/04/12 07:18:12;;;;;;;;;;;;;;;8.24;100.00;99765.91;5015246;28;19914;-66
2023/04/12 07:20:37;;;;;;;;;;;;;;;8.25;100.00;99765.72;5022602;28;19920;-65
2023/04/12 07:23:02;;;;;;;;;;;;;;;8.24;100.00;99773.84;5028021;28;19960;-65
2023/04/12 07:25:27;;;;;;;;;;;;;;;8.24;100.00;99771.19;5023820;28;19922;-65
2023/04/12 07:27:53;;;;;;;;;;;;;;;8.23;100.00;99762.44;5021275;28;19989;-65
2023/04/12 07:30:18;;;;;;;;;;;;;;;8.27;100.00;99769.00;5028606;28;19917;-65
2023/04/12 07:32:43;;;;;;;;;;;;;;;8.27;100.00;99758.41;5025825;28;20371;-65
2023/04/12 07:35:08;;;;;;;;;;;;;;;8.30;100.00;99759.88;5024372;28;19991;-67
2023/04/12 07:37:34;;;;;;;;;;;;;;;8.33;100.00;99748.94;5024835;28;19913;-65
2023/04/12 07:40:00;;;;;;;;;;;;;;;8.33;100.00;99752.44;5025299;28;19921;-65
2023/04/12 07:42:25;;;;;;;;;;;;;;;8.38;100.00;99750.06;5025439;28;19916;-65
2023/04/12 07:44:51;;;;;;;;;;;;;;;8.42;100.00;99749.72;5020405;28;20358;-66
2023/04/12 07:47:16;;;;;;;;;;;;;;;8.45;100.00;99751.97;5021428;28;19956;-65
2023/04/12 07:49:41;;;;;;;;;;;;;;;8.46;100.00;99754.44;5021186;28;20351;-65
2023/04/12 07:52:06;;;;;;;;;;;;;;;8.50;100.00;99749.59;5022053;28;19921;-65
2023/04/12 07:54:31;;;;;;;;;;;;;;;8.51;100.00;99743.31;5019043;28;19936;-65
2023/04/12 07:56:58;;;;;;;;;;;;;;;8.54;100.00;99735.00;5017357;28;19924;-65
2023/04/12 07:59:23;;;;;;;;;;;;;;;8.59;100.00;99737.91;5012879;28;21170;-65
2023/04/12 08:01:48;;;;;;;;;;;;;;;8.63;100.00;99740.00;5023250;28;20402;-65
2023/04/12 08:04:13;;;;;;;;;;;;;;;8.68;100.00;99742.13;5031716;28;19976;-65
2023/04/12 08:06:39;;;;;;;;;;;;;;;8.71;100.00;99736.44;5027132;28;20295;-65
2023/04/12 08:09:04;;;;;;;;;;;;;;;8.74;100.00;99745.84;5027075;28;19948;-65
2023/04/12 08:11:29;;;;;;;;;;;;;;;8.73;100.00;99742.38;5020432;28;19924;-65
2023/04/12 08:13:55;;;;;;;;;;;;;;;8.77;100.00;99753.41;5015547;28;19941;-65
2023/04/12 08:16:20;;;;;;;;;;;;;;;8.73;100.00;99755.59;5014404;28;19929;-65
2023/04/12 08:18:45;;;;;;;;;;;;;;;8.71;100.00;99747.03;5027421;28;19917;-65
2023/04/12 08:21:10;;;;;;;;;;;;;;;8.68;100.00;99735.00;5024220;28;20017;-64
2023/04/12 08:23:35;;;;;;;;;;;;;;;8.69;100.00;99741.09;5027114;28;19921;-66
2023/04/12 08:26:03;;;;;;;;;;;;;;;8.72;100.00;99745.22;5027603;28;19994;-64
2023/04/12 08:28:29;;;;;;;;;;;;;;;8.76;100.00;99749.13;5020907;28;19917;-64
2023/04/12 08:30:55;;;;;;;;;;;;;;;8.79;100.00;99757.50;5021797;28;19969;-65
2023/04/12 08:33:20;;;;;;;;;;;;;;;8.78;100.00;99747.94;5024436;28;19998;-64
2023/04/12 08:35:45;;;;;;;;;;;;;;;8.79;100.00;99752.22;5025362;28;19917;-64
2023/04/12 08:38:11;;;;;;;;;;;;;;;8.78;99.07;99758.50;5026163;28;19913;-64
2023/04/12 08:40:37;;;;;;;;;;;;;;;8.80;99.01;99748.56;5023450;28;20071;-65
2023/04/12 08:43:05;;;;;;;;;;;;;;;8.82;98.49;99746.53;5015182;28;20011;-64
2023/04/12 08:45:30;;;;;;;;;;;;;;;8.86;98.52;99744.34;5022878;28;20012;-65
2023/04/12 08:47:56;;;;;;;;;;;;;;;8.95;99.22;99736.09;5012780;28;20020;-65
2023/04/12 08:50:22;;;;;;;;;;;;;;;9.09;99.57;99739.72;5020304;28;20028;-65
2023/04/12 08:52:49;;;;;;;;;;;;;;;9.24;99.56;99743.13;5026138;28;20000;-64
2023/04/12 08:55:14;;;;;;;;;;;;;;;9.37;99.33;99746.91;5017507;28;19917;-64
2023/04/12 08:57:40;;;;;;;;;;;;;;;9.53;99.60;99736.88;5023579;28;19929;-64
2023/04/12 09:00:07;;;;;;;;;;;;;;;9.67;99.21;99735.16;5026604;28;19916;-64
2023/04/12 09:02:34;;;;;;;;;;;;;;;9.73;97.39;99741.53;4996313;28;19930;-64
2023/04/12 09:04:59;;;;;;;;;;;;;;;9.75;96.34;99742.97;5016560;28;19921;-64
2023/04/12 09:07:29;;;;;;;;;;;;;;;9.79;95.88;99743.41;5015503;28;19918;-65
2023/04/12 09:09:55;;;;;;;;;;;;;;;9.89;95.16;99741.25;5026932;28;19925;-65
2023/04/12 09:12:22;;;;;;;;;;;;;;;9.98;93.91;99740.09;5024001;28;19931;-64
2023/04/12 09:14:48;;;;;;;;;;;;;;;10.08;93.58;99740.53;5024332;28;19918;-64
2023/04/12 09:17:22;;;;;;;;;;;;;;;10.16;93.05;99731.66;5021136;28;19924;-64
2023/04/12 09:19:47;;;;;;;;;;;;;;;10.32;93.06;99723.38;5021594;28;19921;-64
2023/04/12 09:22:12;;;;;;;;;;;;;;;10.46;92.57;99722.44;5025466;28;20497;-64
2023/04/12 09:24:51;;;;;;;;;;;;;;;10.58;92.54;99725.34;5024572;28;19918;-64
2023/04/12 09:27:19;;;;;;;;;;;;;;;10.49;90.80;99726.53;5015521;28;20022;-65
2023/04/12 09:29:50;;;;;;;;;;;;;;;10.49;90.72;99722.03;5022753;28;19924;-65
2023/04/12 09:32:15;;;;;;;;;;;;;;;10.49;90.51;99731.84;5028531;28;19972;-64
2023/04/12 09:34:53;;;;;;;;;;;;;;;10.47;90.22;99729.41;5026421;28;19952;-64
2023/04/12 09:37:18;;;;;;;;;;;;;;;10.47;89.05;99725.91;5030704;28;19921;-65
2023/04/12 09:39:43;;;;;;;;;;;;;;;10.53;89.29;99719.81;5022522;28;19922;-64
2023/04/12 09:42:10;;;;;;;;;;;;;;;10.62;87.80;99731.06;5015050;28;19917;-64
2023/04/12 09:44:35;;;;;;;;;;;;;;;10.72;87.56;99716.44;5023513;28;19925;-65
2023/04/12 09:47:01;;;;;;;;;;;;;;;10.85;87.63;99718.28;5026047;28;19925;-64
2023/04/12 09:49:39;;;;;;;;;;;;;;;10.92;86.57;99713.00;5027268;28;19960;-65
2023/04/12 09:52:09;;;;;;;;;;;;;;;10.94;84.27;99701.16;5016579;28;19936;-65
2023/04/12 09:54:40;;;;;;;;;;;;;;;11.13;84.54;99707.53;5023941;28;20596;-64
2023/04/12 09:57:07;;;;;;;;;;;;;;;11.06;82.12;99704.88;5026074;28;19978;-66
2023/04/12 09:59:34;;;;;;;;;;;;;;;10.94;81.16;99697.69;5026462;28;19964;-64
2023/04/12 10:02:00;;;;;;;;;;;;;;;10.83;81.36;99704.41;5014865;28;19925;-64
2023/04/12 10:04:26;;;;;;;;;;;;;;;10.72;81.24;99702.34;5029669;28;20286;-65
2023/04/12 10:06:51;;;;;;;;;;;;;;;10.66;80.82;99706.56;5022427;28;20397;-66
2023/04/12 10:09:16;;;;;;;;;;;;;;;10.57;80.81;99709.63;5026952;28;19921;-64
2023/04/12 10:11:43;;;;;;;;;;;;;;;10.47;80.72;99708.16;5025418;28;19925;-64
2023/04/12 10:14:08;;;;;;;;;;;;;;;10.43;81.18;99703.44;5028952;28;19913;-65
2023/04/12 10:16:34;;;;;;;;;;;;;;;10.35;81.00;99709.72;5029619;28;20441;-65
2023/04/12 10:19:01;;;;;;;;;;;;;;;10.35;81.62;99704.41;5027280;28;19968;-65
2023/04/12 10:21:26;;;;;;;;;;;;;;;10.38;81.57;99703.19;5024201;28;19917;-65
2023/04/12 10:23:51;;;;;;;;;;;;;;;10.44;81.86;99708.56;5030774;28;20398;-65
2023/04/12 10:26:16;;;;;;;;;;;;;;;10.51;81.94;99708.56;5028576;28;20446;-64
2023/04/12 10:28:45;;;;;;;;;;;;;;;10.57;81.30;99699.00;5030370;28;19913;-65
2023/04/12 10:31:29;;;;;;;;;;;;;;;10.66;82.23;99703.94;5028687;28;19923;-64
2023/04/12 10:33:54;;;;;;;;;;;;;;;10.68;80.73;99687.78;5026394;28;20404;-66
2023/04/12 10:36:40;;;;;;;;;;;;;;;10.83;79.79;99689.28;5021540;28;19921;-64
2023/04/12 10:39:09;;;;;;;;;;;;;;;10.93;78.69;99702.16;5022162;28;19984;-65
2023/04/12 10:41:35;;;;;;;;;;;;;;;10.93;76.99;99702.16;5027857;28;19917;-65
2023/04/12 10:44:20;;;;;;;;;;;;;;;10.98;77.13;99704.22;5016725;28;19976;-66
2023/04/12 10:46:45;;;;;;;;;;;;;;;11.04;76.19;99719.38;5023729;28;19960;-65
2023/04/12 10:49:14;;;;;;;;;;;;;;;11.04;75.62;99720.19;5027297;28;19949;-65
2023/04/12 10:52:02;;;;;;;;;;;;;;;10.99;75.33;99722.66;5024692;28;19933;-64
2023/04/12 10:54:28;;;;;;;;;;;;;;;10.95;73.89;99713.41;5025220;28;19921;-64
2023/04/12 10:56:53;;;;;;;;;;;;;;;10.89;73.49;99716.88;5024068;28;19968;-64
2023/04/12 10:59:18;;;;;;;;;;;;;;;10.82;72.89;99721.34;5027665;28;19991;-64
2023/04/12 11:02:02;;;;;;;;;;;;;;;10.76;73.03;99722.97;5018345;28;20255;-65
2023/04/12 11:04:27;;;;;;;;;;;;;;;10.74;72.60;99719.72;5024286;28;19921;-64
2023/04/12 11:06:52;;;;;;;;;;;;;;;10.71;72.34;99714.78;5024997;28;19991;-65
2023/04/12 11:09:28;;;;;;;;;;;;;;;10.64;71.26;99727.19;5029033;28;19920;-64
2023/04/12 11:11:56;;;;;;;;;;;;;;;10.64;71.16;99721.88;5029450;28;20228;-64
2023/04/12 11:14:27;;;;;;;;;;;;;;;10.73;70.88;99725.22;5026050;28;19980;-64
2023/04/12 11:17:05;;;;;;;;;;;;;;;10.87;70.68;99732.19;5020882;28;19932;-66
2023/04/12 11:19:31;;;;;;;;;;;;;;;10.98;71.57;99728.94;5023656;28;20488;-66
2023/04/12 11:21:56;;;;;;;;;;;;;;;10.98;71.34;99726.28;5026675;28;19921;-65
2023/04/12 11:24:22;;;;;;;;;;;;;;;10.91;71.65;99736.09;5027336;28;19949;-65
2023/04/12 11:26:47;;;;;;;;;;;;;;;10.72;71.91;99731.53;5024814;28;20000;-65
2023/04/12 11:29:15;;;;;;;;;;;;;;;10.57;71.38;99746.78;5013476;28;20367;-65
2023/04/12 11:31:40;;;;;;;;;;;;;;;10.52;70.59;99742.06;5020177;28;19941;-65
2023/04/12 11:34:05;;;;;;;;;;;;;;;10.30;70.60;99744.00;5024464;28;19917;-65
2023/04/12 11:36:31;;;;;;;;;;;;;;;10.19;70.79;99731.25;5024477;28;19974;-65
2023/04/12 11:38:56;;;;;;;;;;;;;;;10.23;70.66;99735.19;5029082;28;19921;-65
2023/04/12 11:41:21;;;;;;;;;;;;;;;10.29;69.64;99730.91;5021663;28;19921;-65
2023/04/12 11:43:47;;;;;;;;;;;;;;;10.37;68.95;99733.41;5023641;28;19923;-66
2023/04/12 11:46:12;;;;;;;;;;;;;;;10.46;68.71;99732.25;5028866;28;19920;-65
2023/04/12 11:48:38;;;;;;;;;;;;;;;10.52;66.62;99736.75;5022738;28;19917;-65
2023/04/12 11:51:23;;;;;;;;;;;;;;;10.53;65.46;99728.59;5027827;28;19917;-66
2023/04/12 11:53:52;;;;;;;;;;;;;;;10.60;64.72;99731.28;5023282;28;20575;-65
2023/04/12 11:56:17;;;;;;;;;;;;;;;10.84;65.21;99727.28;5023879;28;19914;-65
2023/04/12 11:58:45;;;;;;;;;;;;;;;11.10;66.14;99726.53;5020646;28;20329;-67
2023/04/12 12:01:11;;;;;;;;;;;;;;;11.32;64.53;99724.53;5021069;28;19925;-65
2023/04/12 12:03:36;;;;;;;;;;;;;;;11.42;64.39;99723.13;5026115;28;19939;-65
2023/04/12 12:06:02;;;;;;;;;;;;;;;11.49;62.55;99729.25;5021015;28;19922;-65
2023/04/12 12:08:27;;;;;;;;;;;;;;;11.53;62.91;99727.00;5025409;28;20002;-65
2023/04/12 12:10:53;;;;;;;;;;;;;;;11.50;61.73;99730.06;5006221;28;19918;-64
2023/04/12 12:13:18;;;;;;;;;;;;;;;11.46;60.96;99734.16;5018747;28;20469;-65
2023/04/12 12:15:44;;;;;;;;;;;;;;;11.39;62.45;99750.09;5026958;28;19917;-66
2023/04/12 12:18:09;;;;;;;;;;;;;;;11.17;60.03;99745.97;5014221;28;20391;-65
2023/04/12 12:20:41;;;;;;;;;;;;;;;10.75;58.87;99760.34;5023587;28;19953;-65
2023/04/12 12:23:07;;;;;;;;;;;;;;;10.61;57.34;99770.06;5025333;28;19959;-67
2023/04/12 12:25:32;;;;;;;;;;;;;;;10.54;57.09;99759.44;5023683;28;19971;-64
2023/04/12 12:27:58;;;;;;;;;;;;;;;10.46;58.63;99756.94;5020283;28;19928;-66
2023/04/12 12:30:23;;;;;;;;;;;;;;;10.43;58.94;99770.63;5019278;28;19924;-65
2023/04/12 12:32:49;;;;;;;;;;;;;;;10.30;58.43;99769.69;5023089;28;19921;-65
2023/04/12 12:35:14;;;;;;;;;;;;;;;10.34;58.78;99781.56;5018486;28;20290;-65
2023/04/12 12:37:51;;;;;;;;;;;;;;;10.07;59.39;99780.53;5018899;28;19921;-64
2023/04/12 12:40:16;;;;;;;;;;;;;;;9.94;60.72;99768.00;5016554;28;20409;-65
2023/04/12 12:42:45;;;;;;;;;;;;;;;9.82;62.12;99772.19;5018892;28;19917;-65
2023/04/12 12:45:10;;;;;;;;;;;;;;;9.78;63.22;99769.09;5020743;28;19953;-65
2023/04/12 12:47:57;;;;;;;;;;;;;;;9.82;63.78;99759.75;5017699;28;19995;-66